Time;durP1;ratioP1;P1;durP2;ratioP2;P2;SDS_P1;SDS_P2;PMS_P1;PMS_P2;Temp;Humidity;BMP_temperature;BMP_pressure;BME280_temperature;BME280_humidity;BME280_pressure;Samples;Min_cycle;Max_cycle;Signal;HPM_P1;HPM_P2
2022/10/25 00:00:40;;;;;;;8.18;1.67;;;14.50;99.90;;;;;;5053413;28;20033;-84
2022/10/25 00:03:07;;;;;;;5.78;1.65;;;14.50;99.90;;;;;;5035926;28;20044;-84
2022/10/25 00:05:34;;;;;;;7.25;1.80;;;14.60;99.90;;;;;;5035977;28;20068;-84
2022/10/25 00:08:00;;;;;;;10.13;1.50;;;14.50;99.90;;;;;;5053505;28;20039;-85
2022/10/25 00:10:26;;;;;;;9.93;1.98;;;14.60;99.90;;;;;;5053414;28;20028;-85
2022/10/25 00:12:52;;;;;;;9.20;2.08;;;14.60;99.90;;;;;;5035491;28;20032;-84
2022/10/25 00:15:18;;;;;;;8.00;2.40;;;14.60;99.90;;;;;;5053534;28;20036;-85
2022/10/25 00:17:44;;;;;;;8.82;2.28;;;14.60;99.90;;;;;;5035386;28;20033;-84
2022/10/25 00:20:11;;;;;;;12.80;2.60;;;14.60;99.90;;;;;;5035438;28;20346;-85
2022/10/25 00:22:37;;;;;;;14.32;2.75;;;14.60;99.90;;;;;;5053390;28;20025;-84
2022/10/25 00:25:05;;;;;;;10.45;2.58;;;14.70;99.90;;;;;;5053113;28;20036;-85
2022/10/25 00:27:31;;;;;;;10.15;2.65;;;14.70;99.90;;;;;;5035120;28;20495;-84
2022/10/25 00:29:56;;;;;;;13.18;3.17;;;14.70;99.90;;;;;;5034824;28;20029;-84
2022/10/25 00:32:22;;;;;;;11.55;2.97;;;14.70;99.90;;;;;;5035007;28;20044;-84
2022/10/25 00:34:48;;;;;;;10.88;2.97;;;14.70;99.90;;;;;;5053269;28;20037;-84
2022/10/25 00:37:14;;;;;;;7.28;2.33;;;14.70;99.90;;;;;;5052833;28;20063;-84
2022/10/25 00:39:40;;;;;;;10.45;2.50;;;14.70;99.90;;;;;;5052778;28;20043;-84
2022/10/25 00:42:08;;;;;;;9.38;2.72;;;14.70;99.90;;;;;;5035056;28;20025;-84
2022/10/25 00:44:39;;;;;;;10.60;2.35;;;14.70;99.90;;;;;;5053123;28;20025;-84
2022/10/25 00:47:08;;;;;;;12.50;2.70;;;14.70;99.90;;;;;;5052590;28;20032;-84
2022/10/25 00:49:34;;;;;;;11.35;2.95;;;14.70;99.90;;;;;;5034863;28;20069;-82
2022/10/25 00:52:03;;;;;;;12.05;2.88;;;14.70;99.90;;;;;;5052656;28;20041;-84
2022/10/25 00:54:35;;;;;;;11.60;3.25;;;14.80;99.90;;;;;;5052740;28;20115;-84
2022/10/25 00:57:13;;;;;;;11.02;3.40;;;14.80;99.90;;;;;;5052436;28;20033;-84
2022/10/25 00:59:40;;;;;;;10.75;3.30;;;14.80;99.90;;;;;;5052658;28;20513;-84
2022/10/25 01:02:06;;;;;;;11.93;2.72;;;14.80;99.90;;;;;;5052527;28;20027;-85
2022/10/25 01:04:32;;;;;;;8.57;2.85;;;14.80;99.90;;;;;;5034713;28;20441;-84
2022/10/25 01:07:00;;;;;;;10.68;2.40;;;14.90;99.90;;;;;;5017945;28;20037;-84
2022/10/25 01:09:29;;;;;;;8.52;2.30;;;14.90;99.90;;;;;;5034502;28;20112;-84
2022/10/25 01:11:55;;;;;;;12.57;2.75;;;14.90;99.90;;;;;;5017898;28;20044;-84
2022/10/25 01:14:21;;;;;;;8.07;1.77;;;14.90;99.90;;;;;;5034401;28;20123;-84
2022/10/25 01:16:58;;;;;;;9.43;2.00;;;14.90;99.90;;;;;;5052135;28;20103;-84
2022/10/25 01:19:43;;;;;;;12.63;1.85;;;14.90;99.90;;;;;;5052215;28;20474;-85
2022/10/25 01:22:38;;;;;;;9.45;1.50;;;14.90;99.90;;;;;;5052335;28;20033;-84
2022/10/25 01:25:22;;;;;;;7.93;1.40;;;14.90;99.90;;;;;;5077569;22;20049;-84
2022/10/25 01:28:15;;;;;;;7.72;1.60;;;15.00;99.90;;;;;;5030754;28;20036;-85
2022/10/25 01:31:05;;;;;;;8.98;1.60;;;15.00;99.90;;;;;;5030873;28;20022;-85
2022/10/25 01:33:34;;;;;;;6.88;2.05;;;15.00;99.90;;;;;;5030870;28;20039;-85
2022/10/25 01:35:59;;;;;;;9.90;2.40;;;15.00;99.90;;;;;;5030672;28;20033;-85
2022/10/25 01:38:48;;;;;;;9.70;2.08;;;14.90;99.90;;;;;;5030631;28;20041;-85
2022/10/25 01:41:27;;;;;;;7.03;1.85;;;14.90;99.90;;;;;;5032065;28;20030;-85
2022/10/25 01:44:13;;;;;;;8.77;1.23;;;14.90;99.90;;;;;;5030039;28;20490;-85
2022/10/25 01:46:51;;;;;;;7.78;1.70;;;14.90;99.90;;;;;;5031766;28;20029;-85
2022/10/25 01:49:42;;;;;;;4.85;1.25;;;15.00;99.90;;;;;;5031826;28;20033;-85
2022/10/25 01:52:08;;;;;;;8.75;1.83;;;15.00;99.90;;;;;;5031897;28;20038;-85
2022/10/25 01:54:33;;;;;;;6.80;1.55;;;15.00;99.90;;;;;;5031785;28;20033;-85
2022/10/25 01:57:16;;;;;;;10.30;3.33;;;15.00;99.90;;;;;;5031773;28;20037;-85
2022/10/25 02:00:08;;;;;;;9.25;2.78;;;14.90;99.90;;;;;;5031563;28;20030;-85
2022/10/25 02:02:58;;;;;;;9.35;1.80;;;14.90;99.90;;;;;;5031606;28;20076;-85
2022/10/25 02:06:19;;;;;;;7.80;1.55;;;14.90;99.90;;;;;;5031371;28;20033;-85
2022/10/25 02:09:10;;;;;;;10.60;2.13;;;14.90;99.90;;;;;;5015175;28;20034;-85
2022/10/25 02:11:36;;;;;;;7.38;1.60;;;14.90;99.90;;;;;;5031421;28;20108;-85
2022/10/25 02:14:26;;;;;;;6.63;1.17;;;14.90;99.90;;;;;;5029970;28;20036;-85
2022/10/25 02:17:02;;;;;;;6.45;1.70;;;14.90;99.90;;;;;;5031226;28;20036;-85
2022/10/25 02:19:50;;;;;;;9.00;1.70;;;14.80;99.90;;;;;;5013388;28;20080;-85
2022/10/25 02:22:19;;;;;;;8.80;1.88;;;14.80;99.90;;;;;;5030176;28;20618;-85
2022/10/25 02:24:45;;;;;;;;;;;14.80;99.90;;;;;;5031464;28;20043;-85
2022/10/25 02:27:13;;;;;;;7.70;1.80;;;14.90;99.90;;;;;;5031111;28;19913;-85
2022/10/25 02:29:40;;;;;;;14.77;2.00;;;14.80;99.90;;;;;;5030962;28;20030;-85
2022/10/25 02:32:06;;;;;;;8.52;1.80;;;14.80;99.90;;;;;;5013361;28;20445;-85
2022/10/25 02:34:32;;;;;;;12.80;1.90;;;14.80;99.90;;;;;;5013694;28;20383;-85
2022/10/25 02:37:00;;;;;;;8.50;1.70;;;14.80;99.90;;;;;;5032957;28;20029;-85
2022/10/25 02:39:28;;;;;;;4.13;1.40;;;14.90;99.90;;;;;;5050907;28;20028;-85
2022/10/25 02:41:54;;;;;;;7.43;1.30;;;14.80;99.90;;;;;;5051112;28;20175;-86
2022/10/25 02:44:20;;;;;;;9.40;1.80;;;14.80;99.90;;;;;;5050932;28;20417;-85
2022/10/25 02:46:46;;;;;;;11.05;2.10;;;14.80;99.90;;;;;;5050833;28;20033;-85
2022/10/25 02:49:11;;;;;;;9.57;2.35;;;14.80;99.90;;;;;;5050476;28;20043;-85
2022/10/25 02:51:37;;;;;;;9.23;1.67;;;14.80;99.90;;;;;;5050759;28;20037;-85
2022/10/25 02:54:03;;;;;;;7.35;1.85;;;14.80;99.90;;;;;;5050539;28;20021;-85
2022/10/25 02:56:29;;;;;;;10.13;2.10;;;14.80;99.90;;;;;;5050661;28;20025;-85
2022/10/25 02:58:56;;;;;;;8.75;2.13;;;14.80;99.90;;;;;;5050574;28;20053;-85
2022/10/25 03:01:22;;;;;;;10.85;2.45;;;14.80;99.90;;;;;;5032762;28;20035;-85
2022/10/25 03:03:48;;;;;;;11.20;2.72;;;14.80;99.90;;;;;;5050463;28;20108;-85
2022/10/25 03:06:15;;;;;;;10.60;3.00;;;14.80;99.90;;;;;;5032528;28;20128;-85
2022/10/25 03:08:41;;;;;;;12.95;3.17;;;14.80;99.90;;;;;;5016011;28;20037;-85
2022/10/25 03:11:08;;;;;;;13.55;3.40;;;14.80;99.90;;;;;;5032666;28;20029;-85
2022/10/25 03:13:35;;;;;;;12.40;3.10;;;14.80;99.90;;;;;;5050858;28;20524;-86
2022/10/25 03:16:00;;;;;;;9.13;3.08;;;14.90;99.90;;;;;;5032479;28;20037;-85
2022/10/25 03:18:26;;;;;;;15.77;4.32;;;14.90;99.90;;;;;;5050406;28;20029;-85
2022/10/25 03:20:59;;;;;;;12.60;4.55;;;14.90;99.90;;;;;;5050307;28;20567;-84
2022/10/25 03:23:26;;;;;;;12.60;4.18;;;14.90;99.90;;;;;;5050275;28;20060;-85
2022/10/25 03:25:57;;;;;;;12.80;3.70;;;14.90;99.90;;;;;;5050266;28;20124;-85
2022/10/25 03:28:26;;;;;;;13.98;4.10;;;14.90;99.90;;;;;;5050446;28;20037;-85
2022/10/25 03:30:52;;;;;;;11.77;3.58;;;14.90;99.90;;;;;;5032347;28;20037;-85
2022/10/25 03:33:18;;;;;;;12.93;3.80;;;14.90;99.90;;;;;;5050296;28;20086;-85
2022/10/25 03:35:44;;;;;;;14.13;5.10;;;14.90;99.90;;;;;;5033041;28;20033;-85
2022/10/25 03:38:12;;;;;;;13.45;4.13;;;14.90;99.90;;;;;;5050340;28;20104;-85
2022/10/25 03:40:38;;;;;;;9.10;3.07;;;14.90;99.90;;;;;;5050242;28;20021;-85
2022/10/25 03:43:04;;;;;;;11.27;3.28;;;15.00;99.90;;;;;;5032481;28;20032;-84
2022/10/25 03:45:29;;;;;;;8.75;3.17;;;14.90;99.90;;;;;;5032334;28;20611;-85
2022/10/25 03:47:55;;;;;;;10.77;2.13;;;14.90;99.90;;;;;;5032120;28;20052;-84
2022/10/25 03:50:24;;;;;;;12.38;3.30;;;15.00;99.90;;;;;;5050100;28;20389;-85
2022/10/25 03:52:50;;;;;;;8.68;2.47;;;14.90;99.90;;;;;;5050112;28;20097;-85
2022/10/25 03:55:16;;;;;;;6.53;2.10;;;14.90;99.90;;;;;;5050252;28;20344;-85
2022/10/25 03:57:41;;;;;;;7.15;1.95;;;14.80;99.90;;;;;;5049955;28;20094;-85
2022/10/25 04:00:08;;;;;;;7.22;1.90;;;14.80;99.90;;;;;;5031836;28;20029;-85
2022/10/25 04:02:39;;;;;;;10.15;1.70;;;14.80;99.90;;;;;;5049994;28;20033;-85
2022/10/25 04:05:05;;;;;;;8.83;1.63;;;14.80;99.90;;;;;;5050144;28;20108;-85
2022/10/25 04:07:31;;;;;;;7.05;1.60;;;14.80;99.90;;;;;;5053429;28;20025;-85
2022/10/25 04:09:57;;;;;;;11.88;2.00;;;14.80;99.90;;;;;;5053415;28;20115;-85
2022/10/25 04:12:23;;;;;;;8.65;1.90;;;14.80;99.90;;;;;;5053595;28;20091;-85
2022/10/25 04:14:49;;;;;;;8.75;2.63;;;14.80;99.90;;;;;;5053488;28;20155;-85
2022/10/25 04:17:14;;;;;;;9.90;2.80;;;14.80;99.90;;;;;;5053173;28;20129;-85
2022/10/25 04:20:02;;;;;;;9.30;2.17;;;14.80;99.90;;;;;;5053535;28;20029;-85
2022/10/25 04:22:28;;;;;;;9.00;2.75;;;14.80;99.90;;;;;;5054228;28;20036;-84
2022/10/25 04:24:54;;;;;;;5.78;2.33;;;14.80;99.90;;;;;;5056294;28;20401;-84
2022/10/25 04:27:19;;;;;;;7.22;1.75;;;14.80;99.90;;;;;;5035958;28;20039;-85
2022/10/25 04:29:45;;;;;;;7.68;2.30;;;14.80;99.90;;;;;;5035146;28;20035;-85
2022/10/25 04:32:11;;;;;;;9.10;2.55;;;14.80;99.90;;;;;;5035838;28;20034;-84
2022/10/25 04:34:37;;;;;;;7.85;1.98;;;14.80;99.90;;;;;;5053031;28;20041;-85
2022/10/25 04:37:03;;;;;;;5.43;1.83;;;14.80;99.90;;;;;;5018908;28;20040;-85
2022/10/25 04:39:28;;;;;;;7.93;2.10;;;14.80;99.90;;;;;;5052943;28;20021;-85
2022/10/25 04:41:54;;;;;;;12.02;2.30;;;14.80;99.90;;;;;;5053339;28;20044;-85
2022/10/25 04:44:20;;;;;;;6.22;1.77;;;14.80;99.90;;;;;;5052915;28;20050;-85
2022/10/25 04:46:46;;;;;;;10.85;2.60;;;14.80;99.90;;;;;;5018539;28;20115;-85
2022/10/25 04:49:13;;;;;;;11.65;3.28;;;14.80;99.90;;;;;;5052857;28;20036;-84
2022/10/25 04:51:40;;;;;;;9.50;2.67;;;14.70;99.90;;;;;;5052881;28;20056;-85
2022/10/25 04:54:06;;;;;;;8.35;2.42;;;14.80;99.90;;;;;;5034819;28;20025;-85
2022/10/25 04:56:32;;;;;;;8.55;2.05;;;14.80;99.90;;;;;;5034583;28;20529;-85
2022/10/25 04:58:58;;;;;;;8.82;2.42;;;14.80;99.90;;;;;;5052633;28;20025;-85
2022/10/25 05:01:24;;;;;;;9.43;2.10;;;14.70;99.90;;;;;;5052656;28;20416;-84
2022/10/25 05:03:50;;;;;;;14.15;4.45;;;14.80;99.90;;;;;;5034938;28;20045;-84
2022/10/25 05:06:21;;;;;;;11.75;3.13;;;14.80;99.90;;;;;;5034612;28;20103;-84
2022/10/25 05:08:49;;;;;;;10.07;2.50;;;14.80;99.90;;;;;;5017974;28;20116;-84
2022/10/25 05:11:35;;;;;;;8.95;2.50;;;14.80;99.90;;;;;;5052744;28;20025;-84
2022/10/25 05:14:01;;;;;;;11.52;2.47;;;14.80;99.90;;;;;;5052007;28;20056;-84
2022/10/25 05:16:27;;;;;;;6.68;2.40;;;14.80;99.90;;;;;;5051888;28;20029;-85
2022/10/25 05:18:54;;;;;;;10.05;2.10;;;14.80;99.90;;;;;;5052646;28;20049;-85
2022/10/25 05:21:21;;;;;;;7.30;2.03;;;14.80;99.90;;;;;;5052195;28;20104;-85
2022/10/25 05:24:19;;;;;;;8.60;1.85;;;14.80;99.90;;;;;;5034579;28;20029;-84
2022/10/25 05:26:44;;;;;;;12.43;2.35;;;14.70;99.90;;;;;;5051523;28;20044;-85
2022/10/25 05:29:11;;;;;;;9.82;2.20;;;14.70;99.90;;;;;;5051867;28;20650;-84
2022/10/25 05:31:39;;;;;;;11.50;2.60;;;14.70;99.90;;;;;;5017753;28;20055;-84
2022/10/25 05:34:06;;;;;;;6.45;1.80;;;14.70;99.90;;;;;;5051918;28;20067;-85
2022/10/25 05:36:32;;;;;;;5.72;1.90;;;14.70;99.90;;;;;;5052001;28;20039;-85
2022/10/25 05:39:01;;;;;;;7.93;2.05;;;14.70;99.90;;;;;;5051715;28;20025;-84
2022/10/25 05:41:27;;;;;;;8.98;2.78;;;14.60;99.90;;;;;;5051750;28;20433;-84
2022/10/25 05:43:53;;;;;;;11.05;2.28;;;14.70;99.90;;;;;;5051804;28;20033;-85
2022/10/25 05:46:21;;;;;;;10.15;2.00;;;14.70;99.90;;;;;;5051591;28;20035;-85
2022/10/25 05:48:48;;;;;;;8.47;2.20;;;14.70;99.90;;;;;;5033974;28;20036;-85
2022/10/25 05:51:15;;;;;;;9.27;2.10;;;14.70;99.90;;;;;;5033761;28;20037;-85
2022/10/25 05:53:53;;;;;;;11.50;2.17;;;14.70;99.90;;;;;;5017361;28;20482;-84
2022/10/25 05:56:21;;;;;;;10.90;2.10;;;14.70;99.90;;;;;;5033431;28;20039;-84
2022/10/25 05:58:47;;;;;;;13.82;3.22;;;14.70;99.90;;;;;;5051455;28;20021;-84
2022/10/25 06:01:18;;;;;;;12.90;2.47;;;14.70;99.90;;;;;;5033483;28;20029;-84
2022/10/25 06:03:51;;;;;;;6.30;1.80;;;14.70;99.90;;;;;;5033379;28;20125;-84
2022/10/25 06:06:18;;;;;;;7.20;1.90;;;14.70;99.90;;;;;;5033575;28;20039;-84
2022/10/25 06:08:44;;;;;;;9.65;2.22;;;14.70;99.90;;;;;;5016913;28;20056;-84
2022/10/25 06:11:22;;;;;;;12.77;2.92;;;14.70;99.90;;;;;;5051289;28;20086;-84
2022/10/25 06:13:48;;;;;;;9.35;1.90;;;14.70;99.90;;;;;;5051317;28;20037;-84
2022/10/25 06:16:16;;;;;;;10.85;3.08;;;14.70;99.90;;;;;;5050930;28;20043;-84
2022/10/25 06:18:42;;;;;;;10.27;1.95;;;14.70;99.90;;;;;;5016917;28;20029;-84
2022/10/25 06:21:11;;;;;;;9.77;2.47;;;14.70;99.90;;;;;;5033408;28;20033;-84
2022/10/25 06:23:38;;;;;;;8.80;2.03;;;14.70;99.90;;;;;;5050928;28;20052;-84
2022/10/25 06:26:06;;;;;;;9.20;2.10;;;14.70;99.90;;;;;;5032721;28;20098;-84
2022/10/25 06:28:33;;;;;;;8.20;2.20;;;14.70;99.90;;;;;;5032580;28;20119;-84
2022/10/25 06:31:04;;;;;;;7.60;1.90;;;14.70;99.90;;;;;;5050931;28;20158;-84
2022/10/25 06:33:33;;;;;;;9.50;1.95;;;14.70;99.90;;;;;;5032873;28;20032;-84
2022/10/25 06:36:01;;;;;;;9.07;1.80;;;14.70;99.90;;;;;;5050773;28;20031;-84
2022/10/25 06:38:28;;;;;;;9.02;1.80;;;14.70;99.90;;;;;;5051150;28;20025;-84
2022/10/25 06:41:01;;;;;;;9.05;1.85;;;14.70;99.90;;;;;;5032875;28;20168;-84
2022/10/25 06:43:27;;;;;;;12.10;2.63;;;14.60;99.90;;;;;;5050899;28;20024;-85
2022/10/25 06:45:53;;;;;;;8.52;2.40;;;14.60;99.90;;;;;;5032931;28;20029;-84
2022/10/25 06:48:20;;;;;;;10.73;4.45;;;14.60;99.90;;;;;;5050734;28;20021;-84
2022/10/25 06:50:46;;;;;;;10.18;3.75;;;14.60;99.90;;;;;;5032702;28;20036;-84
2022/10/25 06:53:12;;;;;;;9.85;2.53;;;14.60;99.90;;;;;;5032924;28;20033;-84
2022/10/25 06:55:37;;;;;;;13.02;2.90;;;14.60;99.90;;;;;;5050231;28;20094;-84
2022/10/25 06:58:03;;;;;;;10.20;3.55;;;14.60;99.90;;;;;;5050603;28;20025;-84
2022/10/25 07:00:29;;;;;;;10.70;3.35;;;14.70;99.90;;;;;;5050351;28;20044;-84
2022/10/25 07:02:56;;;;;;;11.65;3.58;;;14.60;99.90;;;;;;5050503;28;20412;-84
2022/10/25 07:05:23;;;;;;;15.32;3.83;;;14.60;99.90;;;;;;5050437;28;20057;-84
2022/10/25 07:07:49;;;;;;;10.55;3.70;;;14.60;99.90;;;;;;5032361;28;20427;-84
2022/10/25 07:10:15;;;;;;;12.60;4.03;;;14.60;99.90;;;;;;5050405;28;20029;-84
2022/10/25 07:12:41;;;;;;;14.77;4.10;;;14.60;99.90;;;;;;5032805;28;20033;-84
2022/10/25 07:15:07;;;;;;;15.07;4.53;;;14.50;99.90;;;;;;5032510;28;20037;-84
2022/10/25 07:17:33;;;;;;;10.45;3.40;;;14.50;99.90;;;;;;5032315;28;20370;-84
2022/10/25 07:19:59;;;;;;;10.55;3.90;;;14.50;99.90;;;;;;5050307;28;20082;-84
2022/10/25 07:22:25;;;;;;;13.20;3.80;;;14.50;99.90;;;;;;5050404;28;20078;-84
2022/10/25 07:24:50;;;;;;;10.15;3.03;;;14.50;99.90;;;;;;5050247;28;20120;-84
2022/10/25 07:27:17;;;;;;;12.05;3.28;;;14.50;99.90;;;;;;5050258;28;20029;-84
2022/10/25 07:29:43;;;;;;;12.48;2.67;;;14.50;99.90;;;;;;5050285;28;20029;-84
2022/10/25 07:32:09;;;;;;;11.48;3.72;;;14.50;99.90;;;;;;5050345;28;20029;-84
2022/10/25 07:34:35;;;;;;;10.02;3.50;;;14.50;99.90;;;;;;5050178;28;20025;-84
2022/10/25 07:37:01;;;;;;;11.60;3.97;;;14.50;99.90;;;;;;5050030;28;20044;-84
2022/10/25 07:39:27;;;;;;;10.88;3.63;;;14.50;99.90;;;;;;5032238;28;20477;-84
2022/10/25 07:41:53;;;;;;;12.40;3.80;;;14.60;99.90;;;;;;5053432;28;20028;-84
2022/10/25 07:44:21;;;;;;;15.30;3.60;;;14.60;99.90;;;;;;5054092;28;20056;-84
2022/10/25 07:46:48;;;;;;;15.00;3.63;;;14.60;99.90;;;;;;5036154;28;20037;-85
2022/10/25 07:49:14;;;;;;;10.35;3.50;;;14.60;99.90;;;;;;5035980;28;20044;-84
2022/10/25 07:51:40;;;;;;;13.57;4.32;;;14.70;99.90;;;;;;5019748;28;20032;-84
2022/10/25 07:54:06;;;;;;;10.93;3.42;;;14.70;99.90;;;;;;5036193;28;20480;-84
2022/10/25 07:56:32;;;;;;;12.40;3.38;;;14.70;99.90;;;;;;5035746;28;20393;-84
2022/10/25 07:58:58;;;;;;;14.35;3.45;;;14.70;99.90;;;;;;5053603;28;20025;-84
2022/10/25 08:01:26;;;;;;;9.35;3.55;;;14.70;99.90;;;;;;5035872;28;20473;-84
2022/10/25 08:03:53;;;;;;;12.35;3.25;;;14.70;99.90;;;;;;5053567;28;20032;-84
2022/10/25 08:06:20;;;;;;;12.05;3.28;;;14.70;99.90;;;;;;5053589;28;20036;-84
2022/10/25 08:08:47;;;;;;;11.68;3.83;;;14.80;99.90;;;;;;5053478;28;20025;-84
2022/10/25 08:11:16;;;;;;;15.88;3.83;;;14.80;99.90;;;;;;5035620;28;20029;-84
2022/10/25 08:13:42;;;;;;;13.05;3.35;;;14.80;99.90;;;;;;5035507;28;20614;-84
2022/10/25 08:16:08;;;;;;;9.75;3.30;;;14.80;99.90;;;;;;5053314;28;20120;-84
2022/10/25 08:18:34;;;;;;;10.02;3.67;;;14.80;99.90;;;;;;5018883;28;20036;-84
2022/10/25 08:21:01;;;;;;;10.82;3.65;;;14.80;99.90;;;;;;5053695;28;20025;-84
2022/10/25 08:23:27;;;;;;;11.43;3.55;;;14.80;99.90;;;;;;5053326;28;20025;-84
2022/10/25 08:25:53;;;;;;;9.75;3.40;;;14.90;99.90;;;;;;5053082;28;20029;-84
2022/10/25 08:28:19;;;;;;;11.50;3.05;;;14.90;99.90;;;;;;5018965;28;20616;-84
2022/10/25 08:30:45;;;;;;;11.00;3.50;;;14.90;99.90;;;;;;5035017;28;20021;-84
2022/10/25 08:33:11;;;;;;;13.02;3.42;;;14.90;99.90;;;;;;5035379;28;20029;-84
2022/10/25 08:35:37;;;;;;;12.50;3.65;;;14.90;99.90;;;;;;5035129;28;20501;-84
2022/10/25 08:38:04;;;;;;;12.30;3.05;;;14.90;99.90;;;;;;5052988;28;20025;-84
2022/10/25 08:40:45;;;;;;;8.30;3.13;;;15.00;99.90;;;;;;5034837;28;20057;-84
2022/10/25 08:43:49;;;;;;;11.10;3.05;;;15.00;99.90;;;;;;5035220;28;20032;-84
2022/10/25 08:46:24;;;;;;;10.07;3.15;;;15.10;99.90;;;;;;5052792;28;20477;-84
2022/10/25 08:49:08;;;;;;;7.38;2.45;;;15.10;99.90;;;;;;5052676;28;20037;-84
2022/10/25 08:51:38;;;;;;;12.68;3.53;;;15.10;99.90;;;;;;5017823;28;20040;-84
2022/10/25 08:54:23;;;;;;;11.02;3.10;;;15.20;99.90;;;;;;5052735;28;20029;-84
2022/10/25 08:56:59;;;;;;;9.05;2.90;;;15.20;99.90;;;;;;5034711;28;20033;-84
2022/10/25 08:59:29;;;;;;;10.00;3.25;;;15.20;99.90;;;;;;5052751;28;20029;-84
2022/10/25 09:01:58;;;;;;;10.75;2.95;;;15.20;99.90;;;;;;5035118;28;20052;-84
2022/10/25 09:04:24;;;;;;;7.95;3.33;;;15.20;99.90;;;;;;5034631;28;20389;-84
2022/10/25 09:07:02;;;;;;;9.60;3.53;;;15.20;99.90;;;;;;5052394;28;20036;-84
2022/10/25 09:09:28;;;;;;;9.13;2.80;;;15.20;99.90;;;;;;5052279;28;20118;-84
2022/10/25 09:12:17;;;;;;;8.95;2.42;;;15.20;99.90;;;;;;5034703;28;20084;-84
2022/10/25 09:15:00;;;;;;;6.75;2.40;;;15.30;99.90;;;;;;5052381;28;20032;-84
2022/10/25 09:17:50;;;;;;;9.25;2.70;;;15.30;99.90;;;;;;5052351;28;20563;-84
2022/10/25 09:20:32;;;;;;;6.22;1.88;;;15.30;99.90;;;;;;5041954;28;20115;-84
2022/10/25 09:23:10;;;;;;;10.20;2.70;;;15.30;99.90;;;;;;5052324;28;20103;-84
2022/10/25 09:25:54;;;;;;;11.65;2.05;;;15.40;99.90;;;;;;5051955;28;20036;-84
2022/10/25 09:28:29;;;;;;;5.88;2.03;;;15.40;99.90;;;;;;5052416;28;20033;-85
2022/10/25 09:30:57;;;;;;;7.30;1.98;;;15.40;99.90;;;;;;5052195;28;20033;-85
2022/10/25 09:33:29;;;;;;;8.40;1.90;;;15.40;99.90;;;;;;5017564;28;20082;-84
2022/10/25 09:35:57;;;;;;;7.47;1.88;;;15.40;99.90;;;;;;5017642;28;20025;-84
2022/10/25 09:38:34;;;;;;;8.73;1.95;;;15.50;99.90;;;;;;5034176;28;20052;-84
2022/10/25 09:41:12;;;;;;;8.70;2.15;;;15.50;99.90;;;;;;5034191;28;20298;-84
2022/10/25 09:43:44;;;;;;;9.85;1.92;;;15.50;99.90;;;;;;5051867;28;20064;-85
2022/10/25 09:46:35;;;;;;;7.25;1.67;;;15.50;99.90;;;;;;5052088;28;20037;-85
2022/10/25 09:49:24;;;;;;;6.25;1.50;;;15.50;99.90;;;;;;5051747;28;20035;-85
2022/10/25 09:51:56;;;;;;;7.82;1.70;;;15.50;99.90;;;;;;5033861;28;20029;-85
2022/10/25 09:54:33;;;;;;;8.93;2.03;;;15.50;99.90;;;;;;5034067;28;20462;-85
2022/10/25 09:56:58;;;;;;;7.07;2.05;;;15.50;99.90;;;;;;5017122;28;20032;-85
2022/10/25 09:59:28;;;;;;;7.00;1.75;;;15.50;99.90;;;;;;5051597;28;20055;-85
2022/10/25 10:01:54;;;;;;;8.13;1.80;;;15.50;99.90;;;;;;5033776;28;20544;-85
2022/10/25 10:04:20;;;;;;;10.82;1.92;;;15.50;99.90;;;;;;5050646;28;20116;-85
2022/10/25 10:06:47;;;;;;;6.93;1.80;;;15.50;99.90;;;;;;5051123;28;20043;-85
2022/10/25 10:09:15;;;;;;;6.97;1.70;;;15.50;99.90;;;;;;5017296;28;20553;-85
2022/10/25 10:11:43;;;;;;;7.28;2.10;;;15.60;99.90;;;;;;5051419;28;20115;-85
2022/10/25 10:14:44;;;;;;;8.40;1.67;;;15.60;99.90;;;;;;5033570;28;20029;-85
2022/10/25 10:17:15;;;;;;;9.57;2.25;;;15.60;99.90;;;;;;5051475;28;20033;-85
2022/10/25 10:19:42;;;;;;;10.00;1.80;;;15.60;99.90;;;;;;5016829;28;20128;-85
2022/10/25 10:22:14;;;;;;;7.93;2.38;;;15.60;99.90;;;;;;5051078;28;20028;-85
2022/10/25 10:24:44;;;;;;;7.50;2.22;;;15.60;99.90;;;;;;5051150;28;20067;-85
2022/10/25 10:27:19;;;;;;;9.30;2.47;;;15.60;99.90;;;;;;5051058;28;20037;-85
2022/10/25 10:30:17;;;;;;;8.88;1.92;;;15.70;99.90;;;;;;5050765;28;20501;-85
2022/10/25 10:32:43;;;;;;;9.97;1.90;;;15.70;99.90;;;;;;5045527;28;20064;-85
2022/10/25 10:35:34;;;;;;;6.70;2.00;;;15.70;99.90;;;;;;5050858;28;20493;-85
2022/10/25 10:38:26;;;;;;;8.57;1.90;;;15.80;99.90;;;;;;5050789;28;20041;-85
2022/10/25 10:41:10;;;;;;;7.00;2.05;;;15.80;99.90;;;;;;5032950;28;20029;-85
2022/10/25 10:43:36;;;;;;;13.98;4.50;;;15.80;99.90;;;;;;5050841;28;20595;-85
2022/10/25 10:46:08;;;;;;;12.98;4.18;;;15.70;99.90;;;;;;5050745;28;20021;-85
2022/10/25 10:48:40;;;;;;;16.73;3.30;;;15.70;99.90;;;;;;5050664;28;20025;-85
2022/10/25 10:51:06;;;;;;;14.27;4.82;;;15.70;99.90;;;;;;5050896;28;20025;-85
2022/10/25 10:53:33;;;;;;;15.98;5.90;;;15.80;99.90;;;;;;5016407;28;20055;-85
2022/10/25 10:56:08;;;;;;;10.02;3.90;;;15.80;99.90;;;;;;5050478;28;20102;-85
2022/10/25 10:58:37;;;;;;;9.20;4.90;;;15.80;99.90;;;;;;5032813;28;20048;-85
2022/10/25 11:01:13;;;;;;;12.35;5.82;;;15.80;99.90;;;;;;5050684;28;20024;-85
2022/10/25 11:03:41;;;;;;;12.52;2.92;;;15.80;99.90;;;;;;5050785;28;20021;-85
2022/10/25 11:06:15;;;;;;;10.43;3.85;;;15.80;99.90;;;;;;5050571;28;20500;-85
2022/10/25 11:08:44;;;;;;;12.32;3.45;;;15.80;99.90;;;;;;5016134;28;20040;-85
2022/10/25 11:11:22;;;;;;;9.32;2.72;;;15.90;99.90;;;;;;5032581;28;20029;-85
2022/10/25 11:13:56;;;;;;;9.45;2.10;;;15.90;99.90;;;;;;5050631;28;20037;-85
2022/10/25 11:16:42;;;;;;;9.07;2.15;;;15.90;99.90;;;;;;5036200;28;20029;-85
2022/10/25 11:19:20;;;;;;;6.15;1.98;;;15.90;99.90;;;;;;5054025;28;20040;-85
2022/10/25 11:22:04;;;;;;;7.00;1.73;;;15.90;99.90;;;;;;5054532;28;20029;-85
2022/10/25 11:24:54;;;;;;;5.00;1.95;;;15.90;99.90;;;;;;5054419;28;20052;-85
2022/10/25 11:27:41;;;;;;;8.25;2.33;;;16.00;99.90;;;;;;5054235;28;20025;-85
2022/10/25 11:30:20;;;;;;;6.47;2.03;;;16.00;99.90;;;;;;5054221;28;20029;-85
2022/10/25 11:32:55;;;;;;;7.30;2.00;;;16.10;99.90;;;;;;5036775;28;20136;-85
2022/10/25 11:35:35;;;;;;;8.55;2.50;;;16.10;99.90;;;;;;5036293;28;20790;-85
2022/10/25 11:38:25;;;;;;;6.53;2.00;;;16.10;99.90;;;;;;5054138;28;20457;-85
2022/10/25 11:41:12;;;;;;;5.47;2.13;;;16.10;99.90;;;;;;5054300;28;20055;-85
2022/10/25 11:43:56;;;;;;;5.18;2.15;;;16.10;99.90;;;;;;5019836;28;20039;-85
2022/10/25 11:46:24;;;;;;;9.20;2.08;;;16.10;99.90;;;;;;5054226;28;20529;-85
2022/10/25 11:49:24;;;;;;;5.70;1.98;;;16.10;99.90;;;;;;5054543;28;20041;-85
2022/10/25 11:52:14;;;;;;;5.63;2.22;;;16.20;99.90;;;;;;5036396;28;20114;-85
2022/10/25 11:55:17;;;;;;;6.13;2.50;;;16.20;99.90;;;;;;5054245;28;20094;-85
2022/10/25 11:58:08;;;;;;;9.38;2.67;;;16.20;99.90;;;;;;5036061;28;20393;-85
2022/10/25 12:00:40;;;;;;;5.32;1.75;;;16.20;99.90;;;;;;5053679;28;20021;-85
2022/10/25 12:03:28;;;;;;;5.32;1.73;;;16.20;99.90;;;;;;5053788;28;20029;-85
2022/10/25 12:05:54;;;;;;;4.60;1.85;;;16.20;99.90;;;;;;5053611;28;20137;-85
2022/10/25 12:08:45;;;;;;;6.72;1.73;;;16.20;99.90;;;;;;5053673;28;20092;-85
2022/10/25 12:11:20;;;;;;;4.78;1.40;;;16.10;99.90;;;;;;5053589;28;20032;-85
2022/10/25 12:13:50;;;;;;;5.50;1.60;;;16.10;99.90;;;;;;5053603;28;20040;-85
2022/10/25 12:16:19;;;;;;;5.18;1.73;;;16.10;99.90;;;;;;5019116;28;20032;-85
2022/10/25 12:18:50;;;;;;;;;;;16.10;99.90;;;;;;5035909;28;20028;-85
2022/10/25 12:21:26;;;;;;;5.40;2.00;;;16.10;99.90;;;;;;5035611;28;19909;-84
2022/10/25 12:23:54;;;;;;;6.18;1.60;;;16.20;99.90;;;;;;5053428;28;20496;-85
2022/10/25 12:26:28;;;;;;;5.60;1.55;;;16.20;99.90;;;;;;5052023;28;20028;-85
2022/10/25 12:28:57;;;;;;;6.82;1.80;;;16.20;99.90;;;;;;5035308;28;20036;-85
2022/10/25 12:31:34;;;;;;;10.25;2.40;;;16.20;99.90;;;;;;5053137;28;20033;-84
2022/10/25 12:34:05;;;;;;;7.25;1.70;;;16.20;99.90;;;;;;5053158;28;20537;-85
2022/10/25 12:36:40;;;;;;;5.85;1.80;;;16.30;99.90;;;;;;5052941;28;20056;-85
2022/10/25 12:39:20;;;;;;;5.32;1.90;;;16.20;99.90;;;;;;5052818;28;20135;-85
2022/10/25 12:41:51;;;;;;;5.00;2.10;;;16.20;99.90;;;;;;5053053;28;20033;-84
2022/10/25 12:44:26;;;;;;;6.78;2.45;;;16.30;99.90;;;;;;5035190;28;20456;-85
2022/10/25 12:47:08;;;;;;;6.50;2.08;;;16.20;99.90;;;;;;5034932;28;20068;-85
2022/10/25 12:49:59;;;;;;;6.93;2.10;;;16.20;99.90;;;;;;5053075;28;20033;-84
2022/10/25 12:52:37;;;;;;;4.43;1.73;;;16.20;99.90;;;;;;5053082;28;20048;-85
2022/10/25 12:55:41;;;;;;;7.78;2.00;;;16.10;99.90;;;;;;5035035;28;20033;-84
2022/10/25 12:58:15;;;;;;;5.00;1.58;;;16.10;99.90;;;;;;5052735;28;20485;-85
2022/10/25 13:00:59;;;;;;;4.88;1.67;;;16.10;99.90;;;;;;5018158;28;20128;-85
2022/10/25 13:03:57;;;;;;;8.23;2.17;;;16.10;99.90;;;;;;5052740;28;20029;-85
2022/10/25 13:06:37;;;;;;;5.90;1.75;;;16.10;99.90;;;;;;5052640;28;20043;-84